createdAt,value
2018-01-26T00:00:41.944Z,98464.67
2018-01-26T00:03:09.337Z,98466.02
2018-01-26T00:05:36.751Z,98466.17
2018-01-26T00:08:04.156Z,98464.94
2018-01-26T00:10:31.556Z,98461.84
2018-01-26T00:12:58.965Z,98459.73
2018-01-26T00:15:26.358Z,98461.91
2018-01-26T00:17:53.882Z,98456.25
2018-01-26T00:20:21.277Z,98455.56
2018-01-26T00:22:48.949Z,98456.15
2018-01-26T00:25:16.331Z,98449.84
2018-01-26T00:27:43.745Z,98449.77
2018-01-26T00:30:11.674Z,98447.05
2018-01-26T00:32:39.088Z,98446.81
2018-01-26T00:35:06.588Z,98444.27
2018-01-26T00:37:33.989Z,98436.82
2018-01-26T00:40:01.454Z,98430.74
2018-01-26T00:42:28.848Z,98434.56
2018-01-26T00:44:56.867Z,98437.52
2018-01-26T00:47:24.277Z,98438.70
2018-01-26T00:49:52.438Z,98443.76
2018-01-26T00:52:20.083Z,98446.16
2018-01-26T00:54:47.473Z,98446.19
2018-01-26T00:57:14.869Z,98438.63
2018-01-26T00:59:42.265Z,98443.03
2018-01-26T01:02:09.666Z,98436.25
2018-01-26T01:04:37.091Z,98429.66
2018-01-26T01:07:04.483Z,98426.47
2018-01-26T01:09:31.880Z,98429.66
2018-01-26T01:11:59.283Z,98436.47
2018-01-26T01:14:26.692Z,98436.10
2018-01-26T01:16:54.461Z,98439.59
2018-01-26T01:19:21.865Z,98436.97
2018-01-26T01:21:49.260Z,98440.59
2018-01-26T01:24:16.660Z,98442.17
2018-01-26T01:26:44.057Z,98442.72
2018-01-26T01:29:11.501Z,98447.47
2018-01-26T01:31:38.892Z,98451.96
2018-01-26T01:34:06.312Z,98457.27
2018-01-26T01:36:33.722Z,98464.70
2018-01-26T01:39:01.114Z,98465.71
2018-01-26T01:41:29.192Z,98473.56
2018-01-26T01:43:56.709Z,98484.55
2018-01-26T01:46:24.107Z,98496.19
2018-01-26T01:49:03.323Z,98493.73
2018-01-26T01:51:30.716Z,98488.97
2018-01-26T01:53:58.128Z,98487.54
2018-01-26T01:56:25.593Z,98489.61
2018-01-26T01:58:53.005Z,98483.97
2018-01-26T02:01:20.404Z,98482.31
2018-01-26T02:03:47.809Z,98486.20
2018-01-26T02:06:15.216Z,98484.00
2018-01-26T02:08:42.620Z,98497.95
2018-01-26T02:11:10.026Z,98491.02
2018-01-26T02:13:37.437Z,98495.69
2018-01-26T02:16:05.344Z,98500.98
2018-01-26T02:18:32.762Z,98498.70
2018-01-26T02:21:00.517Z,98497.02
2018-01-26T02:23:27.930Z,98493.56
2018-01-26T02:25:55.325Z,98495.55
2018-01-26T02:28:22.725Z,98491.19
2018-01-26T02:30:50.136Z,98488.17
2018-01-26T02:33:17.525Z,98487.75
2018-01-26T02:35:44.952Z,98494.53
2018-01-26T02:38:13.271Z,98492.28
2018-01-26T02:40:40.697Z,98492.77
2018-01-26T02:43:08.096Z,98491.08
2018-01-26T02:45:35.488Z,98491.00
2018-01-26T02:48:02.906Z,98483.43
2018-01-26T02:50:30.314Z,98481.78
2018-01-26T02:52:59.423Z,98493.55
2018-01-26T02:55:27.335Z,98498.30
2018-01-26T02:57:55.613Z,98506.52
2018-01-26T03:00:23.800Z,98514.31
2018-01-26T03:02:51.205Z,98523.15
2018-01-26T03:05:18.620Z,98519.47
2018-01-26T03:07:46.088Z,98520.66
2018-01-26T03:10:13.504Z,98515.91
2018-01-26T03:12:40.906Z,98518.38
2018-01-26T03:15:08.323Z,98532.09
2018-01-26T03:17:35.726Z,98525.59
2018-01-26T03:20:03.128Z,98529.09
2018-01-26T03:22:30.580Z,98528.84
2018-01-26T03:24:58.452Z,98528.79
2018-01-26T03:27:25.852Z,98529.80
2018-01-26T03:29:53.272Z,98527.30
2018-01-26T03:32:20.696Z,98535.06
2018-01-26T03:34:48.093Z,98528.27
2018-01-26T03:37:15.498Z,98526.30
2018-01-26T03:39:42.925Z,98526.36
2018-01-26T03:42:10.327Z,98534.42
2018-01-26T03:44:37.736Z,98526.98
2018-01-26T03:47:05.147Z,98527.98
2018-01-26T03:49:32.559Z,98535.91
2018-01-26T03:51:59.976Z,98541.70
2018-01-26T03:54:27.444Z,98542.84
2018-01-26T03:56:54.852Z,98543.68
2018-01-26T03:59:22.255Z,98546.05
2018-01-26T04:01:50.048Z,98547.95
2018-01-26T04:04:17.466Z,98549.94
2018-01-26T04:06:45.659Z,98549.39
2018-01-26T04:09:13.086Z,98562.80
2018-01-26T04:11:40.485Z,98559.59
2018-01-26T04:14:07.890Z,98566.13
2018-01-26T04:16:35.562Z,98571.94
2018-01-26T04:19:03.081Z,98578.06
2018-01-26T04:21:33.539Z,98569.30
2018-01-26T04:24:00.941Z,98574.95
2018-01-26T04:26:28.355Z,98579.72
2018-01-26T04:28:55.758Z,98575.30
2018-01-26T04:31:23.164Z,98576.67
2018-01-26T04:33:50.644Z,98579.97
2018-01-26T04:36:18.044Z,98584.25
2018-01-26T04:38:45.455Z,98582.72
2018-01-26T04:41:12.866Z,98587.03
2018-01-26T04:43:40.267Z,98588.48
2018-01-26T04:46:07.684Z,98588.59
2018-01-26T04:48:35.084Z,98580.83
2018-01-26T04:51:02.507Z,98582.34
2018-01-26T04:53:29.909Z,98576.80
2018-01-26T04:55:57.315Z,98573.45
2018-01-26T04:58:24.715Z,98584.22
2018-01-26T05:00:52.132Z,98589.34
2018-01-26T19:57:33.351Z,99402.41
2018-01-26T20:00:00.800Z,99400.69
2018-01-26T20:02:28.205Z,99402.67
2018-01-26T20:05:12.995Z,99402.56
2018-01-26T20:07:43.329Z,99406.84
2018-01-26T20:10:10.730Z,99414.08
2018-01-26T20:12:43.842Z,99418.66
2018-01-26T20:15:11.299Z,99424.80
2018-01-26T20:17:38.753Z,99422.08
2018-01-26T20:20:06.191Z,99420.27
2018-01-26T20:22:33.652Z,99423.28
2018-01-26T20:42:36.231Z,99436.70
2018-01-26T20:45:03.620Z,99438.59
2018-01-26T20:47:31.070Z,99435.15
2018-01-26T20:49:58.516Z,99443.27
2018-01-26T20:52:25.970Z,99444.52
2018-01-26T20:54:53.420Z,99446.81
2018-01-26T20:57:20.868Z,99442.30
2018-01-26T20:59:48.307Z,99446.63
2018-01-26T21:02:15.701Z,99459.45
2018-01-26T21:04:43.167Z,99458.78
2018-01-26T21:07:10.616Z,99460.36
2018-01-26T21:09:38.060Z,99465.44
2018-01-26T21:12:05.500Z,99470.02
2018-01-26T21:14:32.957Z,99463.81
2018-01-26T21:17:00.353Z,99458.91
2018-01-26T21:19:28.451Z,99463.83
2018-01-26T21:21:55.895Z,99468.48
2018-01-26T21:24:23.339Z,99470.59
2018-01-26T21:26:50.778Z,99469.67
2018-01-26T21:29:18.228Z,99481.89
2018-01-26T21:31:45.663Z,99477.42
2018-01-26T21:34:13.123Z,99490.89
2018-01-26T21:36:40.575Z,99491.53
2018-01-26T21:39:08.028Z,99492.05
2018-01-26T21:41:35.489Z,99494.23
2018-01-26T21:44:02.924Z,99501.44
2018-01-26T21:46:30.367Z,99498.44
2018-01-26T21:48:57.776Z,99504.39
2018-01-26T21:51:25.217Z,99504.00
2018-01-26T21:53:52.676Z,99500.05
2018-01-26T21:56:20.132Z,99506.53
2018-01-26T21:58:47.567Z,99504.76
2018-01-26T22:02:40.845Z,99511.13
2018-01-26T22:05:13.775Z,99514.72
2018-01-26T22:07:41.245Z,99520.68
2018-01-26T22:10:09.411Z,99521.95
2018-01-26T22:12:36.869Z,99527.13
2018-01-26T22:15:04.319Z,99525.42
2018-01-26T22:17:31.765Z,99540.00
2018-01-26T22:19:59.212Z,99542.01
2018-01-26T22:22:26.654Z,99538.32
2018-01-26T22:24:54.108Z,99540.21
2018-01-26T22:27:21.547Z,99546.23
2018-01-26T22:29:49.008Z,99549.98
2018-01-26T22:32:16.463Z,99562.45
2018-01-26T22:34:43.911Z,99558.20
2018-01-26T22:37:11.366Z,99566.51
2018-01-26T22:39:38.815Z,99568.48
2018-01-26T22:42:06.272Z,99560.34
2018-01-26T22:44:33.675Z,99563.27
2018-01-26T22:47:01.136Z,99569.41
2018-01-26T22:49:28.696Z,99569.27
2018-01-26T22:51:56.098Z,99573.25
2018-01-26T22:54:23.512Z,99578.97
2018-01-26T22:56:50.923Z,99586.09
2018-01-26T22:59:18.375Z,99596.53
2018-01-26T23:01:45.826Z,99601.38
2018-01-26T23:04:13.268Z,99602.91
2018-01-26T23:06:40.756Z,99598.84
2018-01-26T23:09:08.173Z,99600.94
2018-01-26T23:11:35.567Z,99607.62
2018-01-26T23:14:03.056Z,99602.39
2018-01-26T23:16:30.464Z,99603.55
2018-01-26T23:18:57.870Z,99605.94
2018-01-26T23:21:25.334Z,99608.39
2018-01-26T23:23:52.730Z,99606.81
2018-01-26T23:26:20.191Z,99614.58
2018-01-26T23:28:47.584Z,99612.81
2018-01-26T23:31:15.006Z,99620.23
2018-01-26T23:33:42.418Z,99618.16
2018-01-26T23:36:09.831Z,99614.17
2018-01-26T23:38:38.129Z,99613.89
2018-01-26T23:41:05.528Z,99619.82
2018-01-26T23:43:32.943Z,99623.43
2018-01-26T23:46:00.362Z,99619.95
2018-01-26T23:48:27.814Z,99621.80
2018-01-26T23:50:55.212Z,99610.74
2018-01-26T23:53:22.658Z,99617.20
2018-01-26T23:55:50.060Z,99618.59
2018-01-26T23:58:17.471Z,99612.05
